METAR Data
IDs: Format: Raw Decoded Include TAF

Data at: 0741 UTC 03 Aug 2021

ETHN 030720Z 15004KT 9999 SCT100 BKN180 16/12 Q1015 BLU BLU